Dry Tortugas National Park, FL

8:15 AM EDT on September 18, 2014 (GMT -0400)
Big Coppitt Key Gulfside | Change Station
CLOSE
Current Station
Personal Weather Station
Location: Key West, FL
Elevation: 31 ft
Nearby Weather Stations

Elev 31 ft 24.60 °N, 81.67 °W | Updated 6 minutes ago

Mostly Cloudy
Mostly Cloudy
81.1 °F
Feels Like 88 °F
N
3.7
Wind Variable Wind from SW

Today
High -- | Low -- °F
--% Chance of Precip.
Yesterday
High -- | Low -- °F
Precip. -- in
7:13 AM 7:27 PM
Waning Crescent, 27% visible
Pressure 29.93 in
Visibility 10.0 miles
Clouds Few 2500 ft
Mostly Cloudy 14000 ft
Mostly Cloudy 25000 ft
Heat Index 88 °F
Dew Point 76 °F
Humidity 85%
Rainfall 0.00 in
Snow Depth Not available.
UV 0 out of 12
Pollen 3.90 out of 12
Air Quality Not available.
Flu Activity Not available.
METAR KNQX 181153Z 22005KT 10SM FEW025 BKN140 BKN250 27/24 A2993 RMK AO2 SLP133 70003 T02720239 10278 20261 53013 $

More Conditions Fewer Conditions

Pressure 29.93 in
Visibility 10.0 miles
Clouds Few 2500 ft
Mostly Cloudy 14000 ft
Mostly Cloudy 25000 ft
Heat Index 88 °F
Dew Point 76 °F
Humidity 85%
Rainfall 0.00 in
Snow Depth Not available.
UV 0 out of 12
Pollen 3.90 out of 12
Air Quality Not available.
Flu Activity Not available.
METAR KNQX 181153Z 22005KT 10SM FEW025 BKN140 BKN250 27/24 A2993 RMK AO2 SLP133 70003 T02720239 10278 20261 53013 $

More Conditions Fewer Conditions

Nowcast | as of 7:47 am EDT on September 18, 2014

Until 9 am..isolated showers and perhaps a thunderstorm will affect the nearshore waters north of the Lower Keys including Florida Bay...as well as the waters 5 to 20 nm northwest through north of Dry Tortugas. Movement of the activity will be toward the east northeast at 5 to 10 knots. A few heavier cells will generate gusty winds...cut visibility to below 5 miles in moderate to heavy rain and possibly a few cloud to surface lightning strikes.

×

10-Day Weather Forecast

Almanac

Astronomy

Sep. 18, 2014 Rise Set
Actual Time 7:13 AM EDT 7:27 PM EDT
Civil Twilight 6:50 AM EDT 7:49 PM EDT
Nautical Twilight 6:24 AM EDT 8:16 PM EDT
Astronomical Twilight 5:57 AM EDT 8:43 PM EDT
Moon 2:29 AM EDT 3:54 PM EDT
Length of Visible Light 12h 58m
Length of Day
12h 13m
Tomorrow will be 1m 25s shorter.
Waning Crescent, 27% of the Moon is Illuminated
Today
Waning Crescent
Sep 24
New
Oct 1
First Quarter
Oct 8
Full
Oct 15
Last Quarter

Today's Extremes

State Highs State Lows

Community

WunderPhotos

Upload Photos

1,754,332 photos uploaded!

Nearby

Snow Depth

Station Depth Elevation
No new snow has been reported.

Earthquake Activity

City Distance Mag. Time & Date
No recent earthquake activity has been reported nearby.
Minimum magnitude displayed is 2.5.

Coastal Water Temperatures

Place Temperature
Key West, FL 84.9 °F
Vaca Key, FL 86.0 °F

Nearby Weather Stations